createdAt,value
2018-12-01T00:00:07.062Z,99.99
2018-12-01T00:01:07.657Z,99.99
2018-12-01T00:02:08.171Z,99.99
2018-12-01T00:03:08.535Z,99.99
2018-12-01T00:04:09.043Z,99.99
2018-12-01T00:05:09.588Z,99.99
2018-12-01T00:06:10.097Z,99.99
2018-12-01T00:07:10.507Z,99.99
2018-12-01T00:08:10.991Z,99.99
2018-12-01T00:09:13.078Z,99.99
2018-12-01T00:10:13.523Z,99.99
2018-12-01T00:11:14.091Z,99.99
2018-12-01T00:12:16.135Z,99.99
2018-12-01T00:13:16.572Z,99.99
2018-12-01T00:14:17.077Z,99.99
2018-12-01T00:15:17.511Z,99.99
2018-12-01T00:16:18.038Z,99.99
2018-12-01T00:17:18.470Z,99.99
2018-12-01T00:18:18.914Z,99.99
2018-12-01T00:19:19.559Z,99.99
2018-12-01T00:20:19.899Z,99.99
2018-12-01T00:21:20.378Z,99.99
2018-12-01T00:22:20.870Z,99.99
2018-12-01T00:23:23.089Z,99.99
2018-12-01T00:24:23.591Z,99.99
2018-12-01T00:25:24.043Z,99.99
2018-12-01T00:26:24.563Z,99.99
2018-12-01T00:27:26.651Z,99.99
2018-12-01T00:28:27.156Z,99.99
2018-12-01T00:29:27.565Z,99.99
2018-12-01T00:30:28.014Z,99.99
2018-12-01T00:31:28.497Z,99.99
2018-12-01T00:32:28.978Z,99.99
2018-12-01T00:33:29.441Z,99.99
2018-12-01T00:34:29.926Z,99.99
2018-12-01T00:35:30.411Z,99.99
2018-12-01T00:36:30.850Z,99.99
2018-12-01T00:37:31.367Z,99.99
2018-12-01T00:38:31.850Z,99.99
2018-12-01T00:39:32.328Z,99.99
2018-12-01T00:40:32.799Z,99.99
2018-12-01T00:41:33.323Z,99.99
2018-12-01T00:42:33.788Z,99.99
2018-12-01T00:43:34.240Z,99.99
2018-12-01T00:44:49.608Z,99.99
2018-12-01T00:45:50.082Z,99.99
2018-12-01T00:46:52.075Z,99.99
2018-12-01T00:47:52.761Z,99.99
2018-12-01T00:48:53.040Z,99.99
2018-12-01T00:49:53.586Z,99.99
2018-12-01T00:50:53.983Z,99.99
2018-12-01T00:51:54.554Z,99.99
2018-12-01T00:52:54.905Z,99.99
2018-12-01T00:53:55.415Z,99.99
2018-12-01T00:54:55.879Z,99.99
2018-12-01T00:55:56.345Z,99.99
2018-12-01T00:56:56.837Z,99.99
2018-12-01T00:57:57.267Z,99.99
2018-12-01T00:58:57.864Z,99.99
2018-12-01T00:59:58.231Z,99.99
2018-12-01T01:00:58.711Z,99.99
2018-12-01T01:01:59.294Z,99.99
2018-12-01T01:02:59.801Z,99.99
2018-12-01T01:04:00.266Z,99.99
2018-12-01T01:05:00.640Z,99.99
2018-12-01T01:06:01.195Z,99.99
2018-12-01T01:07:01.586Z,99.99
2018-12-01T01:08:02.103Z,99.99
2018-12-01T01:09:04.137Z,99.99
2018-12-01T01:10:04.599Z,99.99
2018-12-01T01:11:05.118Z,99.99
2018-12-01T01:12:05.477Z,99.99
2018-12-01T01:13:07.592Z,99.99
2018-12-01T01:14:08.080Z,99.99
2018-12-01T01:15:10.210Z,99.99
2018-12-01T01:16:12.111Z,99.99
2018-12-01T01:17:12.563Z,99.99
2018-12-01T01:18:13.189Z,99.99
2018-12-01T01:19:13.457Z,99.99
2018-12-01T01:20:14.038Z,99.99
2018-12-01T01:21:14.470Z,99.99
2018-12-01T01:22:16.664Z,99.99
2018-12-01T01:23:17.050Z,99.99
2018-12-01T01:24:19.129Z,99.99
2018-12-01T01:25:19.658Z,99.99
2018-12-01T01:26:20.090Z,99.99
2018-12-01T01:27:20.548Z,99.99
2018-12-01T01:28:20.968Z,99.99
2018-12-01T01:29:21.401Z,99.99
2018-12-01T01:30:21.999Z,99.99
2018-12-01T01:31:22.453Z,99.99
2018-12-01T01:32:23.070Z,99.99
2018-12-01T01:33:23.542Z,99.99
2018-12-01T01:34:23.910Z,99.99
2018-12-01T01:35:24.397Z,99.99
2018-12-01T01:36:24.937Z,99.99
2018-12-01T01:37:25.294Z,99.99
2018-12-01T01:38:27.594Z,99.99
2018-12-01T01:39:28.090Z,99.99
2018-12-01T01:40:28.627Z,99.99
2018-12-01T01:41:29.037Z,99.99
2018-12-01T01:42:29.562Z,99.99
2018-12-01T01:43:29.986Z,99.99
2018-12-01T01:44:30.479Z,99.99
2018-12-01T01:45:31.034Z,99.99
2018-12-01T01:46:31.425Z,99.99
2018-12-01T01:47:31.948Z,99.99
2018-12-01T01:48:32.375Z,99.99
2018-12-01T01:49:32.836Z,99.99
2018-12-01T01:50:33.394Z,99.99
2018-12-01T01:51:33.773Z,99.99
2018-12-01T01:52:34.440Z,99.99
2018-12-01T01:53:34.744Z,99.99
2018-12-01T01:54:35.298Z,99.99
2018-12-01T01:55:35.738Z,99.99
2018-12-01T01:56:36.316Z,99.99
2018-12-01T01:57:36.602Z,99.99
2018-12-01T01:58:37.110Z,99.99
2018-12-01T01:59:37.579Z,99.99
2018-12-01T02:00:38.016Z,99.99
2018-12-01T02:01:40.051Z,99.99
2018-12-01T02:02:40.682Z,99.99
2018-12-01T02:03:42.653Z,99.99
2018-12-01T02:04:43.136Z,99.99
2018-12-01T02:05:43.513Z,99.99
2018-12-01T02:06:44.071Z,99.99
2018-12-01T02:07:44.556Z,99.99
2018-12-01T02:08:44.952Z,99.99
2018-12-01T02:09:45.533Z,99.99
2018-12-01T02:10:45.952Z,99.99
2018-12-01T02:11:46.534Z,99.99
2018-12-01T02:12:46.882Z,99.99
2018-12-01T02:13:47.346Z,99.99
2018-12-01T02:14:47.889Z,99.99
2018-12-01T02:15:50.131Z,99.99
2018-12-01T02:16:52.138Z,99.99
2018-12-01T02:17:52.594Z,99.99
2018-12-01T02:18:53.186Z,99.99
2018-12-01T02:19:53.516Z,99.99
2018-12-01T02:20:53.977Z,99.99
2018-12-01T02:21:54.478Z,99.99
2018-12-01T02:22:54.943Z,99.99
2018-12-01T02:23:55.421Z,99.99
2018-12-01T02:24:55.906Z,99.99
2018-12-01T02:25:56.321Z,99.99
2018-12-01T02:26:56.844Z,99.99
2018-12-01T02:27:57.483Z,99.99
2018-12-01T02:28:57.826Z,99.99
2018-12-01T02:29:58.356Z,99.99
2018-12-01T02:31:00.610Z,99.99
2018-12-01T02:32:01.542Z,99.99
2018-12-01T02:33:01.655Z,99.99
2018-12-01T02:34:02.082Z,99.99
2018-12-01T02:35:02.527Z,99.99
2018-12-01T02:36:03.032Z,99.99
2018-12-01T02:37:03.546Z,99.99
2018-12-01T02:38:03.994Z,99.99
2018-12-01T02:39:04.400Z,99.99
2018-12-01T02:40:04.917Z,99.99
2018-12-01T02:41:05.388Z,99.99
2018-12-01T02:42:05.862Z,99.99
2018-12-01T02:43:06.369Z,99.99
2018-12-01T02:44:06.806Z,99.99
2018-12-01T02:45:07.314Z,99.99
2018-12-01T02:46:07.904Z,99.99
2018-12-01T02:47:10.289Z,99.99
2018-12-01T02:48:10.710Z,99.99
2018-12-01T02:49:12.601Z,99.99
2018-12-01T02:50:13.057Z,99.99
2018-12-01T02:51:13.650Z,99.99
2018-12-01T02:52:14.037Z,99.99
2018-12-01T02:53:14.496Z,99.99
2018-12-01T02:54:15.113Z,99.99
2018-12-01T02:55:15.475Z,99.99
2018-12-01T02:56:15.960Z,99.99
2018-12-01T02:57:16.479Z,99.99
2018-12-01T02:58:16.910Z,99.99
2018-12-01T02:59:17.425Z,99.99
2018-12-01T03:00:17.865Z,99.99
2018-12-01T03:01:18.378Z,99.99
2018-12-01T03:02:18.842Z,99.99
2018-12-01T03:03:19.301Z,99.99
2018-12-01T03:04:19.819Z,99.99
2018-12-01T03:05:20.354Z,99.99
2018-12-01T03:06:20.825Z,99.99
2018-12-01T03:07:21.234Z,99.99
2018-12-01T03:08:21.863Z,99.99
2018-12-01T03:09:22.163Z,99.99
2018-12-01T03:10:22.632Z,99.99
2018-12-01T03:11:23.148Z,99.99
2018-12-01T03:12:23.657Z,99.99
2018-12-01T03:13:24.143Z,99.99
2018-12-01T03:14:24.780Z,99.99
2018-12-01T03:15:26.582Z,99.99
2018-12-01T03:16:27.165Z,99.99
2018-12-01T03:17:27.491Z,99.99
2018-12-01T03:18:28.086Z,99.99
2018-12-01T03:19:28.539Z,99.99
2018-12-01T03:20:29.012Z,99.99
2018-12-01T03:21:29.525Z,99.99
2018-12-01T03:22:29.952Z,99.99
2018-12-01T03:23:30.377Z,99.99
2018-12-01T03:24:31.004Z,99.99
2018-12-01T03:25:33.084Z,99.99
2018-12-01T03:26:33.573Z,99.99
2018-12-01T03:27:34.052Z,99.99
2018-12-01T03:28:36.105Z,99.99
2018-12-01T03:29:36.664Z,99.99
2018-12-01T03:30:37.070Z,99.99
2018-12-01T03:31:37.565Z,99.99
2018-12-01T03:32:38.146Z,99.99
2018-12-01T03:33:38.621Z,99.99
2018-12-01T03:34:38.976Z,99.99
2018-12-01T03:35:39.477Z,99.99
2018-12-01T03:36:41.589Z,99.99
2018-12-01T03:37:42.075Z,99.99
2018-12-01T03:38:42.554Z,99.99
2018-12-01T03:39:43.101Z,99.99
2018-12-01T03:40:43.546Z,99.99
2018-12-01T03:41:44.018Z,99.99
2018-12-01T03:42:44.523Z,99.99
2018-12-01T03:43:44.936Z,99.99
2018-12-01T03:44:47.227Z,99.99
2018-12-01T03:45:47.654Z,99.99
2018-12-01T03:46:48.122Z,99.99
2018-12-01T03:47:48.585Z,99.99
2018-12-01T03:48:49.019Z,99.99
2018-12-01T03:49:49.480Z,99.99
2018-12-01T03:50:49.941Z,99.99
2018-12-01T03:51:50.484Z,99.99
2018-12-01T03:52:50.871Z,99.99
2018-12-01T03:53:51.396Z,99.99
2018-12-01T03:54:51.907Z,99.99
2018-12-01T03:55:54.102Z,99.99
2018-12-01T03:56:54.658Z,99.99
2018-12-01T03:57:55.064Z,99.99
2018-12-01T03:58:55.533Z,99.99
2018-12-01T03:59:56.103Z,99.99
2018-12-01T04:00:56.624Z,99.99
2018-12-01T04:01:56.954Z,99.99
2018-12-01T04:02:57.499Z,99.99
2018-12-01T04:03:57.932Z,99.99
2018-12-01T04:04:58.451Z,99.99
2018-12-01T04:05:58.956Z,99.99
2018-12-01T04:06:59.400Z,99.99
2018-12-01T04:07:59.827Z,99.99
2018-12-01T04:09:00.376Z,99.99
2018-12-01T04:10:00.864Z,99.99
2018-12-01T04:11:01.296Z,99.99
2018-12-01T04:12:01.725Z,99.99
2018-12-01T04:13:02.258Z,99.99
2018-12-01T04:14:02.690Z,99.99
2018-12-01T04:15:05.160Z,99.99
2018-12-01T04:16:05.591Z,99.99
2018-12-01T04:17:06.086Z,99.99
2018-12-01T04:18:06.566Z,99.99
2018-12-01T04:19:07.041Z,99.99
2018-12-01T04:20:07.494Z,99.99
2018-12-01T04:21:09.610Z,99.99
2018-12-01T04:22:10.068Z,99.99
2018-12-01T04:23:10.550Z,99.99
2018-12-01T04:24:12.616Z,99.99
2018-12-01T04:25:13.090Z,99.99
2018-12-01T04:26:13.547Z,99.99
2018-12-01T04:27:15.617Z,99.99
2018-12-01T04:28:16.064Z,99.99
2018-12-01T04:29:16.602Z,99.99
2018-12-01T04:30:17.131Z,99.99
2018-12-01T04:31:17.532Z,99.99
2018-12-01T04:32:17.973Z,99.99
2018-12-01T04:33:18.504Z,99.99
2018-12-01T04:34:18.986Z,99.99
2018-12-01T04:35:19.422Z,99.99
2018-12-01T04:36:19.893Z,99.99
2018-12-01T04:37:20.493Z,99.99
2018-12-01T04:38:20.967Z,99.99
2018-12-01T04:39:21.343Z,99.99
2018-12-01T04:40:21.866Z,99.99
2018-12-01T04:41:22.350Z,99.99
2018-12-01T04:42:22.730Z,99.99
2018-12-01T04:43:23.321Z,99.99
2018-12-01T04:44:23.858Z,99.99
2018-12-01T04:45:24.259Z,99.99
2018-12-01T04:46:26.599Z,99.99
2018-12-01T04:47:28.594Z,99.99
2018-12-01T04:48:29.117Z,99.99
2018-12-01T04:49:29.614Z,99.99
2018-12-01T04:50:30.073Z,99.99
2018-12-01T04:51:30.560Z,99.99
2018-12-01T04:52:31.039Z,99.99
2018-12-01T04:53:31.572Z,99.99
2018-12-01T04:54:31.940Z,99.99
2018-12-01T04:55:32.488Z,99.99
2018-12-01T04:56:32.950Z,99.99
2018-12-01T04:57:33.457Z,99.99
2018-12-01T04:58:33.830Z,99.99
2018-12-01T04:59:34.497Z,99.99
2018-12-01T05:00:34.922Z,99.99
2018-12-01T05:01:35.419Z,99.99
2018-12-01T05:02:35.811Z,99.99
2018-12-01T05:03:36.310Z,99.99
2018-12-01T05:04:36.721Z,99.99
2018-12-01T05:05:37.204Z,99.99
2018-12-01T05:06:37.725Z,99.99
2018-12-01T05:07:38.151Z,99.99
2018-12-01T05:08:40.605Z,99.99
2018-12-01T05:09:41.181Z,99.99
2018-12-01T05:10:43.707Z,99.99
2018-12-01T05:11:44.145Z,99.99
2018-12-01T05:12:44.567Z,99.99
2018-12-01T05:13:45.025Z,99.99
2018-12-01T05:14:45.512Z,99.99
2018-12-01T05:15:46.491Z,99.99
2018-12-01T05:16:46.961Z,99.99
2018-12-01T05:17:47.693Z,99.99
2018-12-01T05:18:48.618Z,99.99
2018-12-01T05:19:51.132Z,99.99
2018-12-01T05:20:51.835Z,99.99
2018-12-01T05:21:52.303Z,99.99
2018-12-01T05:22:52.795Z,99.99
2018-12-01T05:23:53.358Z,99.99
2018-12-01T05:24:53.871Z,99.99
2018-12-01T05:25:54.379Z,99.99
2018-12-01T05:26:54.861Z,99.99
2018-12-01T05:27:55.398Z,99.99
2018-12-01T05:28:55.805Z,99.99
2018-12-01T05:29:56.232Z,99.99
2018-12-01T05:30:56.712Z,99.99
2018-12-01T05:31:57.257Z,99.99
2018-12-01T05:32:57.713Z,99.99
2018-12-01T05:33:58.161Z,99.99
2018-12-01T05:34:58.595Z,99.99
2018-12-01T05:35:59.093Z,99.99
2018-12-01T05:36:59.583Z,99.99
2018-12-01T05:38:00.034Z,99.99
2018-12-01T05:39:00.540Z,99.99
2018-12-01T05:40:00.985Z,99.99
2018-12-01T05:41:01.459Z,99.99
2018-12-01T05:42:01.987Z,99.99
2018-12-01T05:43:02.432Z,99.99
2018-12-01T05:44:02.954Z,99.99
2018-12-01T05:45:05.166Z,99.99
2018-12-01T05:46:05.629Z,99.99
2018-12-01T05:47:06.045Z,99.99
2018-12-01T05:48:06.579Z,99.99
2018-12-01T05:49:07.119Z,99.99
2018-12-01T05:50:07.544Z,99.99
2018-12-01T05:51:08.009Z,99.99
2018-12-01T05:52:08.511Z,99.99
2018-12-01T05:53:08.941Z,99.99
2018-12-01T05:54:09.469Z,99.99
2018-12-01T05:55:09.945Z,99.99
2018-12-01T05:56:10.459Z,99.99
2018-12-01T05:57:10.873Z,99.99
2018-12-01T05:58:11.336Z,99.99
2018-12-01T05:59:11.820Z,99.99
2018-12-01T06:00:12.333Z,99.99
2018-12-01T06:01:12.948Z,99.99
2018-12-01T06:02:13.322Z,99.99
2018-12-01T06:03:13.840Z,99.99
2018-12-01T06:04:14.326Z,99.99
2018-12-01T06:05:16.689Z,99.99
2018-12-01T06:06:17.300Z,99.99
2018-12-01T06:07:19.575Z,99.99
2018-12-01T06:08:20.167Z,99.99
2018-12-01T06:09:20.708Z,99.99
2018-12-01T06:10:21.135Z,99.99
2018-12-01T06:11:21.734Z,99.99
2018-12-01T06:12:22.080Z,99.99
2018-12-01T06:13:22.578Z,99.99
2018-12-01T06:14:23.004Z,99.99
2018-12-01T06:15:23.524Z,99.99
2018-12-01T06:16:23.920Z,99.99
2018-12-01T06:17:24.483Z,99.99
2018-12-01T06:18:24.965Z,99.99
2018-12-01T06:19:25.399Z,99.99
2018-12-01T06:20:25.974Z,99.99
2018-12-01T06:21:26.385Z,99.99
2018-12-01T06:22:26.788Z,99.99
2018-12-01T06:23:27.325Z,99.99
2018-12-01T06:24:27.869Z,99.99
2018-12-01T06:25:28.244Z,99.99
2018-12-01T06:26:28.764Z,99.99
2018-12-01T06:27:29.449Z,99.99
2018-12-01T06:28:29.787Z,99.99
2018-12-01T06:29:30.339Z,99.99
2018-12-01T06:30:30.805Z,99.99
2018-12-01T06:31:31.303Z,99.99
2018-12-01T06:32:31.832Z,99.99
2018-12-01T06:33:34.162Z,99.99
2018-12-01T06:34:34.586Z,99.99
2018-12-01T06:35:35.052Z,99.99
2018-12-01T06:36:35.483Z,99.99
2018-12-01T06:37:37.633Z,99.99
2018-12-01T06:38:38.107Z,99.99
2018-12-01T06:39:38.583Z,99.99
2018-12-01T06:40:39.111Z,99.99
2018-12-01T06:41:39.567Z,99.99
2018-12-01T06:42:40.021Z,99.99
2018-12-01T06:43:40.508Z,99.99
2018-12-01T06:44:41.070Z,99.99
2018-12-01T06:45:41.624Z,99.99
2018-12-01T06:46:41.982Z,99.99
2018-12-01T06:47:42.422Z,99.99
2018-12-01T06:48:43.049Z,99.99
2018-12-01T06:49:45.142Z,99.99
2018-12-01T06:50:45.633Z,99.99
2018-12-01T06:51:46.129Z,99.99
2018-12-01T06:52:46.759Z,99.99
2018-12-01T06:53:49.065Z,99.99
2018-12-01T06:54:49.604Z,99.99
2018-12-01T06:55:50.021Z,99.99
2018-12-01T06:56:50.600Z,99.99
2018-12-01T06:57:51.111Z,99.99
2018-12-01T06:58:51.547Z,99.99
2018-12-01T06:59:51.952Z,99.99
2018-12-01T07:00:52.606Z,99.99
2018-12-01T07:01:53.059Z,99.99
2018-12-01T07:02:53.474Z,99.99
2018-12-01T07:03:53.942Z,99.99
2018-12-01T07:04:54.359Z,99.99
2018-12-01T07:05:54.870Z,99.99
2018-12-01T07:06:55.436Z,99.99
2018-12-01T07:07:55.816Z,99.99
2018-12-01T07:08:56.334Z,99.99
2018-12-01T07:09:56.796Z,99.99
2018-12-01T07:10:57.272Z,99.99
2018-12-01T07:11:57.697Z,99.99
2018-12-01T07:12:58.180Z,99.99
2018-12-01T07:13:58.768Z,99.99
2018-12-01T07:14:59.107Z,99.99
2018-12-01T07:15:59.648Z,99.99
2018-12-01T07:17:00.065Z,99.99
2018-12-01T07:18:00.536Z,99.99
2018-12-01T07:19:00.999Z,99.99
2018-12-01T07:20:03.094Z,99.99
2018-12-01T07:21:03.595Z,99.99
2018-12-01T07:22:04.084Z,99.99
2018-12-01T07:23:04.563Z,99.99
2018-12-01T07:24:05.018Z,99.99
2018-12-01T07:25:05.512Z,99.99
2018-12-01T07:26:06.006Z,99.99
2018-12-01T07:27:06.486Z,99.99
2018-12-01T07:28:06.958Z,99.99
2018-12-01T07:29:07.443Z,99.99
2018-12-01T07:30:08.024Z,99.99
2018-12-01T07:31:08.491Z,99.99
2018-12-01T07:32:08.951Z,99.99
2018-12-01T07:33:09.479Z,99.99
2018-12-01T07:34:10.054Z,99.99
2018-12-01T07:35:10.331Z,99.99
2018-12-01T07:36:10.856Z,99.99
2018-12-01T07:37:11.333Z,99.99
2018-12-01T07:38:11.864Z,99.99
2018-12-01T07:39:12.416Z,99.99
2018-12-01T07:40:12.777Z,99.99
2018-12-01T07:41:13.245Z,99.99
2018-12-01T07:42:13.760Z,99.99
2018-12-01T07:43:14.231Z,99.99
2018-12-01T07:44:14.783Z,99.99
2018-12-01T07:45:15.263Z,99.99
2018-12-01T07:46:15.670Z,99.99
2018-12-01T07:47:16.207Z,99.99
2018-12-01T07:48:16.706Z,99.99
2018-12-01T07:49:17.095Z,99.99
2018-12-01T07:50:17.594Z,99.99
2018-12-01T07:51:18.107Z,99.99
2018-12-01T07:52:18.688Z,99.99
2018-12-01T07:53:19.088Z,99.99
2018-12-01T07:54:19.557Z,99.99
2018-12-01T07:55:20.027Z,99.99
2018-12-01T07:56:20.492Z,99.99
2018-12-01T07:57:20.997Z,99.99
2018-12-01T07:58:21.573Z,99.99
2018-12-01T07:59:21.990Z,99.99
2018-12-01T08:00:22.452Z,99.99
2018-12-01T08:01:23.033Z,99.99
2018-12-01T08:02:23.489Z,99.99
2018-12-01T08:03:23.960Z,99.99
2018-12-01T08:04:24.394Z,99.99
2018-12-01T08:05:24.880Z,99.99
2018-12-01T08:06:27.382Z,99.99
2018-12-01T08:07:27.606Z,99.99
2018-12-01T08:08:28.090Z,99.99
2018-12-01T08:09:28.717Z,99.99
2018-12-01T08:10:29.028Z,99.99
2018-12-01T08:14:04.262Z,99.99
2018-12-01T08:15:04.744Z,99.99
2018-12-01T08:16:35.449Z,99.99
2018-12-01T08:21:30.490Z,99.99
2018-12-01T08:22:37.843Z,99.99
2018-12-01T08:23:42.733Z,99.99
2018-12-01T08:24:45.748Z,99.99
2018-12-01T08:28:11.351Z,99.99
2018-12-01T08:29:20.997Z,99.99
2018-12-01T08:34:53.367Z,99.99
2018-12-01T09:10:17.664Z,99.99
2018-12-01T09:11:27.816Z,99.99
2018-12-01T09:14:47.780Z,99.99
2018-12-01T09:18:48.218Z,99.99
2018-12-01T09:19:58.944Z,99.99
2018-12-01T09:23:15.234Z,99.99
2018-12-01T09:26:42.958Z,99.99
2018-12-01T09:37:36.335Z,99.99
2018-12-01T09:47:28.875Z,99.99
2018-12-01T09:48:36.769Z,99.99
2018-12-01T09:52:35.268Z,99.99
2018-12-01T09:54:06.230Z,99.99
2018-12-01T09:58:51.590Z,99.99
2018-12-01T10:05:14.534Z,99.99
2018-12-01T10:11:54.606Z,99.99
2018-12-01T10:16:03.193Z,99.99
2018-12-01T10:24:59.647Z,99.99
2018-12-01T10:28:58.569Z,99.99
2018-12-01T10:33:18.978Z,99.99
2018-12-01T10:37:39.257Z,99.99
2018-12-01T10:46:11.290Z,99.99
2018-12-01T10:50:16.546Z,99.99
2018-12-01T10:51:25.924Z,99.99
2018-12-01T10:54:36.254Z,99.99
2018-12-01T11:15:46.409Z,99.99
2018-12-01T11:19:03.041Z,99.99
2018-12-01T11:22:43.500Z,99.99
2018-12-01T11:26:24.330Z,99.99
2018-12-01T11:30:22.073Z,99.99
2018-12-01T11:34:02.801Z,99.99
2018-12-01T11:35:17.270Z,99.99
2018-12-01T11:38:11.011Z,99.99
2018-12-01T11:39:18.117Z,99.99
2018-12-01T11:43:08.012Z,99.46
2018-12-01T11:44:16.191Z,99.04
2018-12-01T11:48:07.529Z,99.60
2018-12-01T11:49:18.677Z,99.27
2018-12-01T11:52:42.536Z,99.51
2018-12-01T11:56:21.311Z,98.65
2018-12-01T12:04:29.376Z,96.65
2018-12-01T12:18:54.699Z,93.70
2018-12-01T12:23:16.886Z,93.70
2018-12-01T12:26:43.365Z,92.65
2018-12-01T12:27:51.523Z,93.51
2018-12-01T12:33:41.874Z,91.88
2018-12-01T12:34:51.563Z,92.08
2018-12-01T12:38:09.243Z,91.79
2018-12-01T12:41:47.403Z,91.98
2018-12-01T12:45:15.569Z,91.64
2018-12-01T12:48:40.961Z,91.07
2018-12-01T12:49:49.108Z,91.31
2018-12-01T12:52:57.896Z,91.41
2018-12-01T13:02:02.604Z,92.55
2018-12-01T13:03:10.620Z,92.32
2018-12-01T13:11:56.476Z,92.79
2018-12-01T13:17:34.264Z,92.74
2018-12-01T13:21:29.262Z,92.41
2018-12-01T13:25:11.194Z,93.08
2018-12-01T13:26:26.761Z,92.69
2018-12-01T13:32:11.320Z,93.84
2018-12-01T13:36:32.897Z,93.27
2018-12-01T13:42:02.332Z,93.46
2018-12-01T13:49:23.320Z,92.98
2018-12-01T13:59:14.902Z,94.51
2018-12-01T14:03:21.310Z,95.27
2018-12-01T14:16:35.622Z,95.17
2018-12-01T14:40:02.634Z,95.41
2018-12-01T14:41:13.437Z,95.12
2018-12-01T14:47:05.111Z,95.41
2018-12-01T14:48:21.317Z,95.51
2018-12-01T14:49:28.433Z,95.51
2018-12-01T14:52:26.341Z,95.70
2018-12-01T14:53:35.385Z,96.17
2018-12-01T14:59:22.606Z,96.36
2018-12-01T15:02:48.924Z,96.36
2018-12-01T15:06:44.902Z,96.36
2018-12-01T15:07:58.697Z,96.65
